Time,TemperatureF,DewpointF,PressureIn,WindDirection,WindDirectionDegrees,WindSpeedMPH,WindSpeedGustMPH,Humidity,HourlyPrecipIn,Conditions,Clouds,dailyrainin,SoftwareType,DateUTC
2013-05-28 00:02:00,45.0,42.0,-100.00,WSW,250,6.0,6.0,88,-99.99,,,-99.99,,2013-05-28 06:02:00,
2013-05-28 00:11:00,45.0,42.0,-100.00,WSW,250,6.0,6.0,88,-99.99,,,-99.99,,2013-05-28 06:11:00,
2013-05-28 00:21:00,45.0,42.0,-100.00,WSW,250,6.0,6.0,88,-99.99,,,-99.99,,2013-05-28 06:21:00,
2013-05-28 00:52:00,45.0,43.0,-100.00,West,260,1.0,2.0,90,-99.99,,,-99.99,,2013-05-28 06:52:00,
2013-05-28 01:01:00,45.0,43.0,-100.00,West,260,1.0,2.0,90,-99.99,,,-99.99,,2013-05-28 07:01:00,
2013-05-28 01:11:00,45.0,43.0,-100.00,West,260,1.0,2.0,90,-99.99,,,-99.99,,2013-05-28 07:11:00,
2013-05-28 01:21:00,45.0,43.0,-100.00,West,260,1.0,2.0,90,-99.99,,,-99.99,,2013-05-28 07:21:00,
2013-05-28 01:52:00,45.0,41.0,-100.00,NW,320,4.0,4.0,87,-99.99,,,-99.99,,2013-05-28 07:52:00,
2013-05-28 02:02:00,45.0,41.0,-100.00,NW,320,4.0,4.0,87,-99.99,,,-99.99,,2013-05-28 08:02:00,
2013-05-28 02:11:00,45.0,41.0,-100.00,NW,320,4.0,4.0,87,-99.99,,,-99.99,,2013-05-28 08:11:00,
2013-05-28 02:21:00,45.0,41.0,-100.00,NW,320,4.0,4.0,87,-99.99,,,-99.99,,2013-05-28 08:21:00,
2013-05-28 02:52:00,43.0,40.0,-100.00,WSW,255,3.0,3.0,88,-99.99,,,-99.99,,2013-05-28 08:52:00,
2013-05-28 03:01:00,43.0,40.0,-100.00,WSW,255,3.0,3.0,88,-99.99,,,-99.99,,2013-05-28 09:01:00,
2013-05-28 03:11:00,43.0,40.0,-100.00,WSW,255,3.0,3.0,88,-99.99,,,-99.99,,2013-05-28 09:11:00,
2013-05-28 03:21:00,43.0,40.0,-100.00,WSW,255,3.0,3.0,88,-99.99,,,-99.99,,2013-05-28 09:21:00,
2013-05-28 04:53:00,45.0,43.0,-100.00,SSE,150,8.0,9.0,92,-99.99,,,-99.99,,2013-05-28 10:53:00,
2013-05-28 05:02:00,45.0,43.0,-100.00,SSE,150,8.0,9.0,92,-99.99,,,-99.99,,2013-05-28 11:02:00,
2013-05-28 05:11:00,45.0,43.0,-100.00,SSE,150,8.0,9.0,92,-99.99,,,-99.99,,2013-05-28 11:11:00,
2013-05-28 05:22:00,45.0,43.0,-100.00,SSE,150,8.0,9.0,92,-99.99,,,-99.99,,2013-05-28 11:22:00,
2013-05-28 07:52:00,47.0,44.0,-100.00,SSE,165,4.0,4.0,87,-99.99,,,-99.99,,2013-05-28 13:52:00,
2013-05-28 08:01:00,47.0,44.0,-100.00,SSE,165,4.0,4.0,87,-99.99,,,-99.99,,2013-05-28 14:01:00,
2013-05-28 08:11:00,47.0,44.0,-100.00,SSE,165,4.0,4.0,87,-99.99,,,-99.99,,2013-05-28 14:11:00,
2013-05-28 08:21:00,47.0,44.0,-100.00,SSE,165,4.0,4.0,87,-99.99,,,-99.99,,2013-05-28 14:21:00,
2013-05-28 08:52:00,48.0,44.0,-100.00,WSW,245,4.0,5.0,85,-99.99,,,-99.99,,2013-05-28 14:52:00,
2013-05-28 09:01:00,48.0,44.0,-100.00,WSW,245,4.0,5.0,85,-99.99,,,-99.99,,2013-05-28 15:01:00,
2013-05-28 09:11:00,48.0,44.0,-100.00,WSW,245,4.0,5.0,85,-99.99,,,-99.99,,2013-05-28 15:11:00,
2013-05-28 09:21:00,48.0,44.0,-100.00,WSW,245,4.0,5.0,85,-99.99,,,-99.99,,2013-05-28 15:21:00,
2013-05-28 09:53:00,49.0,45.0,-100.00,WSW,255,6.0,6.0,87,-99.99,,,-99.99,,2013-05-28 15:53:00,
2013-05-28 10:03:00,49.0,45.0,-100.00,WSW,255,6.0,6.0,87,-99.99,,,-99.99,,2013-05-28 16:03:00,
2013-05-28 10:12:00,49.0,45.0,-100.00,WSW,255,6.0,6.0,87,-99.99,,,-99.99,,2013-05-28 16:12:00,
2013-05-28 10:22:00,49.0,45.0,-100.00,WSW,255,6.0,6.0,87,-99.99,,,-99.99,,2013-05-28 16:22:00,
2013-05-28 10:52:00,49.0,45.0,-100.00,WSW,240,5.0,6.0,86,-99.99,,,-99.99,,2013-05-28 16:52:00,
2013-05-28 11:02:00,49.0,45.0,-100.00,WSW,240,5.0,6.0,86,-99.99,,,-99.99,,2013-05-28 17:02:00,
2013-05-28 11:12:00,49.0,45.0,-100.00,WSW,240,5.0,6.0,86,-99.99,,,-99.99,,2013-05-28 17:12:00,
2013-05-28 11:22:00,49.0,45.0,-100.00,WSW,240,5.0,6.0,86,-99.99,,,-99.99,,2013-05-28 17:22:00,
2013-05-28 11:52:00,50.0,41.0,-100.00,SW,235,3.0,4.0,70,-99.99,,,-99.99,,2013-05-28 17:52:00,
2013-05-28 12:01:00,50.0,41.0,-100.00,SW,235,3.0,4.0,70,-99.99,,,-99.99,,2013-05-28 18:01:00,
2013-05-28 12:11:00,50.0,41.0,-100.00,SW,235,3.0,4.0,70,-99.99,,,-99.99,,2013-05-28 18:11:00,
2013-05-28 12:21:00,50.0,41.0,-100.00,SW,235,3.0,4.0,70,-99.99,,,-99.99,,2013-05-28 18:21:00,
2013-05-28 22:52:00,49.0,43.0,-100.00,South,190,7.0,7.0,80,-99.99,,,-99.99,,2013-05-29 04:52:00,
2013-05-28 23:02:00,49.0,43.0,-100.00,South,190,7.0,7.0,80,-99.99,,,-99.99,,2013-05-29 05:02:00,
2013-05-28 23:12:00,49.0,43.0,-100.00,South,190,7.0,7.0,80,-99.99,,,-99.99,,2013-05-29 05:12:00,
2013-05-28 23:22:00,49.0,43.0,-100.00,South,190,7.0,7.0,80,-99.99,,,-99.99,,2013-05-29 05:22:00,